Time;durP1;ratioP1;P1;durP2;ratioP2;P2;SDS_P1;SDS_P2;PMS_P1;PMS_P2;Temp;Humidity;BMP_temperature;BMP_pressure;BME280_temperature;BME280_humidity;BME280_pressure;Samples;Min_cycle;Max_cycle;Signal;HPM_P1;HPM_P2
2023/11/16 00:04:10;;;;;;;3.25;1.30;;;12.00;99.90;;;;;;10101538;28;20029;-65
2023/11/16 00:09:01;;;;;;;4.60;2.28;;;12.00;99.90;;;;;;10102027;28;20021;-65
2023/11/16 00:13:52;;;;;;;3.45;1.55;;;12.00;99.90;;;;;;10101873;28;20461;-64
2023/11/16 00:18:43;;;;;;;5.15;1.95;;;12.00;99.90;;;;;;10093933;28;20095;-65
2023/11/16 00:23:33;;;;;;;2.45;1.25;;;11.90;99.90;;;;;;10101494;28;20112;-64
2023/11/16 00:28:26;;;;;;;4.90;1.70;;;11.80;99.90;;;;;;10101453;28;20112;-65
2023/11/16 00:33:16;;;;;;;4.35;1.70;;;11.80;99.90;;;;;;10100284;28;20123;-65
2023/11/16 00:38:07;;;;;;;3.83;1.70;;;11.80;99.90;;;;;;10094089;28;20586;-67
2023/11/16 00:42:58;;;;;;;3.78;1.67;;;11.80;99.90;;;;;;10100623;28;20036;-65
2023/11/16 00:47:48;;;;;;;2.35;1.50;;;11.80;99.90;;;;;;10101454;28;20141;-65
2023/11/16 00:52:39;;;;;;;3.03;2.05;;;11.80;99.90;;;;;;10099715;28;20054;-66
2023/11/16 00:57:30;;;;;;;2.65;1.40;;;11.80;99.90;;;;;;10099951;28;20037;-65
2023/11/16 01:02:21;;;;;;;4.85;2.53;;;11.80;99.90;;;;;;10100103;28;20041;-68
2023/11/16 01:07:12;;;;;;;4.22;1.67;;;11.80;99.90;;;;;;10099443;28;20025;-64
2023/11/16 01:12:03;;;;;;;5.20;1.40;;;11.80;99.90;;;;;;10099358;28;20029;-64
2023/11/16 01:16:56;;;;;;;3.08;1.25;;;11.70;99.90;;;;;;10091713;28;20057;-64
2023/11/16 01:21:50;;;;;;;3.97;1.13;;;11.80;99.90;;;;;;10099803;28;20048;-65
2023/11/16 01:26:41;;;;;;;4.25;2.08;;;11.80;99.90;;;;;;10099267;28;20736;-64
2023/11/16 01:31:32;;;;;;;3.85;1.63;;;11.70;99.90;;;;;;10081041;28;20113;-63
2023/11/16 01:36:24;;;;;;;5.05;2.10;;;11.70;99.90;;;;;;10098557;28;20136;-64
2023/11/16 01:41:16;;;;;;;3.83;1.73;;;11.80;99.90;;;;;;10098416;28;20033;-65
2023/11/16 01:46:07;;;;;;;3.42;2.00;;;11.70;99.90;;;;;;10098434;28;20025;-64
2023/11/16 01:50:58;;;;;;;1.88;1.30;;;11.60;99.90;;;;;;10098412;28;20032;-68
2023/11/16 01:55:51;;;;;;;5.68;1.90;;;11.60;99.90;;;;;;10098360;28;20044;-65
2023/11/16 02:00:43;;;;;;;3.75;1.52;;;11.60;99.90;;;;;;10098283;28;20031;-65
2023/11/16 02:05:36;;;;;;;4.32;1.40;;;11.50;99.90;;;;;;10097348;28;20056;-65
2023/11/16 02:10:30;;;;;;;4.35;1.80;;;11.50;99.90;;;;;;10097606;28;20028;-65
2023/11/16 02:15:21;;;;;;;4.18;1.30;;;11.50;99.90;;;;;;10096934;28;20028;-64
2023/11/16 02:20:12;;;;;;;4.22;1.30;;;11.50;99.90;;;;;;10088569;28;20041;-65
2023/11/16 02:25:03;;;;;;;3.25;1.50;;;11.50;99.90;;;;;;10084324;28;20079;-65
2023/11/16 02:29:54;;;;;;;2.95;1.58;;;11.40;99.90;;;;;;10089702;28;20071;-64
2023/11/16 02:34:48;;;;;;;4.18;1.48;;;11.40;99.90;;;;;;10091308;28;20045;-68
2023/11/16 02:39:39;;;;;;;4.50;1.55;;;11.40;99.90;;;;;;10096164;28;20040;-65
2023/11/16 02:44:30;;;;;;;3.25;1.35;;;11.40;99.90;;;;;;10096132;28;20077;-64
2023/11/16 02:49:20;;;;;;;4.47;1.77;;;11.30;99.90;;;;;;10096427;28;20506;-64
2023/11/16 02:54:11;;;;;;;5.93;1.80;;;11.30;99.90;;;;;;10095647;28;20020;-65
2023/11/16 02:59:02;;;;;;;2.70;1.85;;;11.40;99.90;;;;;;10095735;28;20741;-65
2023/11/16 03:03:54;;;;;;;3.17;2.30;;;11.30;99.90;;;;;;10095983;28;20025;-64
2023/11/16 03:08:45;;;;;;;3.90;1.65;;;11.20;99.90;;;;;;10094079;28;20086;-65
2023/11/16 03:13:36;;;;;;;4.22;1.45;;;11.20;99.90;;;;;;10095156;28;20040;-64
2023/11/16 03:18:26;;;;;;;5.22;1.42;;;11.20;99.90;;;;;;10088161;28;20044;-66
2023/11/16 03:23:17;;;;;;;3.13;1.38;;;11.20;99.90;;;;;;10094947;28;20490;-65
2023/11/16 03:28:08;;;;;;;2.45;1.67;;;11.20;99.90;;;;;;10089760;28;20123;-64
2023/11/16 03:32:58;;;;;;;4.38;1.83;;;11.00;99.90;;;;;;10093862;28;20044;-64
2023/11/16 03:37:49;;;;;;;3.30;1.20;;;11.10;99.90;;;;;;10094994;28;20159;-64
2023/11/16 03:42:40;;;;;;;4.85;1.50;;;11.10;99.90;;;;;;10094468;28;20029;-64
2023/11/16 03:47:31;;;;;;;5.70;1.40;;;11.00;99.90;;;;;;10094792;28;20082;-64
2023/11/16 03:52:22;;;;;;;4.55;1.45;;;11.00;99.90;;;;;;10093847;28;20036;-65
2023/11/16 03:57:13;;;;;;;4.30;1.70;;;10.90;99.90;;;;;;10093565;28;20123;-65
2023/11/16 04:02:04;;;;;;;5.78;1.55;;;11.00;99.90;;;;;;10085761;28;20506;-65
2023/11/16 04:06:55;;;;;;;3.65;1.52;;;11.00;99.90;;;;;;10088558;28;20029;-64
2023/11/16 04:11:46;;;;;;;5.43;1.90;;;10.90;99.90;;;;;;10091804;28;20021;-65
2023/11/16 04:16:38;;;;;;;2.65;1.35;;;10.90;99.90;;;;;;10071249;28;20044;-67
2023/11/16 04:21:29;;;;;;;4.88;1.70;;;10.90;99.90;;;;;;10091201;28;20021;-66
2023/11/16 04:26:23;;;;;;;6.20;1.70;;;10.90;99.90;;;;;;10094294;28;20039;-64
2023/11/16 04:31:15;;;;;;;5.55;1.75;;;10.90;99.90;;;;;;10093731;28;20075;-64
2023/11/16 04:36:08;;;;;;;4.93;1.27;;;10.90;99.90;;;;;;10075633;28;20056;-64
2023/11/16 04:40:58;;;;;;;3.65;1.25;;;10.80;99.90;;;;;;10093588;28;20021;-64
2023/11/16 04:45:50;;;;;;;5.82;1.40;;;10.80;99.90;;;;;;10100438;28;20025;-64
2023/11/16 04:50:41;;;;;;;7.50;2.20;;;10.80;99.90;;;;;;10101225;28;20039;-64
2023/11/16 04:55:32;;;;;;;4.68;1.88;;;10.90;99.90;;;;;;10099966;28;20033;-64
2023/11/16 05:00:22;;;;;;;3.63;1.52;;;10.90;99.90;;;;;;10100407;28;20476;-64
2023/11/16 05:05:13;;;;;;;5.93;1.50;;;10.90;99.90;;;;;;10100333;28;20029;-65
2023/11/16 05:10:07;;;;;;;6.57;1.67;;;10.90;99.90;;;;;;10100113;28;20025;-65
2023/11/16 05:14:57;;;;;;;4.63;1.65;;;10.90;99.90;;;;;;10099131;28;20494;-65
2023/11/16 05:19:48;;;;;;;5.63;1.27;;;10.90;99.90;;;;;;10091406;28;20037;-65
2023/11/16 05:24:39;;;;;;;3.17;1.65;;;10.90;99.90;;;;;;10099148;28;20029;-65
2023/11/16 05:29:29;;;;;;;5.05;2.20;;;10.90;99.90;;;;;;10100590;28;20108;-64
2023/11/16 05:34:20;;;;;;;6.28;1.45;;;10.90;99.90;;;;;;10098657;28;20099;-65
2023/11/16 05:39:12;;;;;;;4.00;1.58;;;10.90;99.90;;;;;;10099453;28;20163;-64
2023/11/16 05:44:03;;;;;;;4.55;2.00;;;10.90;99.90;;;;;;10098293;28;20044;-65
2023/11/16 05:48:54;;;;;;;3.67;1.42;;;10.90;99.90;;;;;;10098336;28;20104;-65
2023/11/16 05:53:44;;;;;;;4.18;1.30;;;10.90;99.90;;;;;;10097500;28;20617;-65
2023/11/16 05:58:35;;;;;;;4.38;1.48;;;10.90;99.90;;;;;;10097662;28;20067;-65
2023/11/16 06:03:27;;;;;;;2.58;1.50;;;10.80;99.90;;;;;;10097957;28;20112;-64
2023/11/16 06:08:18;;;;;;;3.10;1.50;;;10.80;99.90;;;;;;10097864;28;20040;-64
2023/11/16 06:13:10;;;;;;;5.20;1.33;;;10.90;99.90;;;;;;10097321;28;20123;-64
2023/11/16 06:18:01;;;;;;;4.15;1.88;;;10.80;99.90;;;;;;10097294;28;20412;-64
2023/11/16 06:22:51;;;;;;;3.63;1.08;;;10.80;99.90;;;;;;10096950;28;20025;-64
2023/11/16 06:27:42;;;;;;;3.72;1.27;;;10.80;99.90;;;;;;10089347;28;20029;-65
2023/11/16 06:32:34;;;;;;;5.25;1.27;;;10.80;99.90;;;;;;10093729;28;20120;-64
2023/11/16 06:37:25;;;;;;;1.83;1.05;;;10.80;99.90;;;;;;10076377;28;20465;-65
2023/11/16 06:42:15;;;;;;;2.47;1.10;;;10.70;99.90;;;;;;10095065;28;20037;-66
2023/11/16 06:47:06;;;;;;;4.70;1.80;;;10.70;99.90;;;;;;10096198;28;20432;-65
2023/11/16 06:51:57;;;;;;;3.47;1.40;;;10.70;99.90;;;;;;10095385;28;20029;-64
2023/11/16 06:56:50;;;;;;;3.03;1.42;;;10.70;99.90;;;;;;10095767;28;20037;-67
2023/11/16 07:01:43;;;;;;;2.28;1.08;;;10.70;99.90;;;;;;10095136;28;20060;-66
2023/11/16 07:06:33;;;;;;;3.55;1.33;;;10.60;99.90;;;;;;10094852;28;20556;-65
2023/11/16 07:11:24;;;;;;;2.85;1.90;;;10.70;99.90;;;;;;10095203;28;20036;-65
2023/11/16 07:16:14;;;;;;;6.20;1.50;;;10.70;99.90;;;;;;10092036;28;20037;-66
2023/11/16 07:21:06;;;;;;;3.13;1.73;;;10.60;99.90;;;;;;10090904;28;20079;-66
2023/11/16 07:26:00;;;;;;;2.38;1.40;;;10.60;99.90;;;;;;10093614;28;20060;-63
2023/11/16 07:30:52;;;;;;;4.57;2.30;;;10.70;99.90;;;;;;10093972;28;20032;-65
2023/11/16 07:35:45;;;;;;;4.88;1.58;;;10.60;99.90;;;;;;10094111;28;20064;-65
2023/11/16 07:40:36;;;;;;;4.70;1.38;;;10.70;99.90;;;;;;10094299;28;20045;-64
2023/11/16 07:45:27;;;;;;;3.28;1.25;;;10.70;99.90;;;;;;10093695;28;20592;-65
2023/11/16 07:50:18;;;;;;;4.82;1.95;;;10.70;99.90;;;;;;10094120;28;20352;-65
2023/11/16 07:55:16;;;;;;;3.03;1.70;;;10.70;99.90;;;;;;10092899;28;20017;-65
2023/11/16 08:00:16;;;;;;;2.67;1.45;;;10.70;99.90;;;;;;10094484;28;20037;-66
2023/11/16 08:05:06;;;;;;;4.95;1.60;;;10.70;99.90;;;;;;10094032;28;20079;-68
2023/11/16 08:09:58;;;;;;;2.63;1.27;;;10.80;99.90;;;;;;10093741;28;20021;-67
2023/11/16 08:14:51;;;;;;;3.58;1.23;;;10.80;99.90;;;;;;10094013;28;20459;-67
2023/11/16 08:19:42;;;;;;;3.80;1.73;;;10.80;99.90;;;;;;10094595;28;20043;-69
2023/11/16 08:24:32;;;;;;;8.05;2.00;;;10.70;99.90;;;;;;10101654;28;20100;-67
2023/11/16 08:29:24;;;;;;;4.25;1.05;;;10.80;99.90;;;;;;10101726;28;20087;-67
2023/11/16 08:34:15;;;;;;;2.90;1.30;;;10.80;99.90;;;;;;10100696;28;20041;-66
2023/11/16 08:39:08;;;;;;;2.13;1.10;;;10.80;99.90;;;;;;10101014;28;20029;-67
2023/11/16 08:44:01;;;;;;;2.45;1.67;;;10.80;99.90;;;;;;10100789;28;20082;-66
2023/11/16 08:48:53;;;;;;;3.33;1.42;;;10.80;99.90;;;;;;10100109;28;20033;-67
2023/11/16 08:53:44;;;;;;;4.55;1.60;;;10.80;99.90;;;;;;10099093;28;20032;-67
2023/11/16 08:58:39;;;;;;;4.65;2.15;;;10.80;99.90;;;;;;10100275;28;20036;-67
2023/11/16 09:03:33;;;;;;;3.25;1.60;;;10.80;99.90;;;;;;10102901;28;20024;-67
2023/11/16 09:08:23;;;;;;;5.55;2.50;;;10.80;99.90;;;;;;10099709;28;20116;-68
2023/11/16 09:13:15;;;;;;;4.55;2.05;;;10.70;99.90;;;;;;10081370;28;20112;-66
2023/11/16 09:18:06;;;;;;;1.52;1.23;;;10.70;99.90;;;;;;10091997;28;20362;-66
2023/11/16 09:22:57;;;;;;;3.60;0.98;;;10.70;99.90;;;;;;10091875;28;20104;-64
2023/11/16 09:27:54;;;;;;;5.88;1.35;;;10.70;99.90;;;;;;10093261;28;20529;-67
2023/11/16 09:32:45;;;;;;;2.70;1.67;;;10.70;99.90;;;;;;10087719;28;20106;-65
2023/11/16 09:37:36;;;;;;;5.45;1.63;;;10.80;99.90;;;;;;10099772;28;20044;-66
2023/11/16 09:42:31;;;;;;;4.10;1.33;;;10.90;99.90;;;;;;10098047;28;20032;-66
2023/11/16 09:47:25;;;;;;;3.85;1.75;;;10.90;99.90;;;;;;10098597;28;20711;-67
2023/11/16 09:52:16;;;;;;;4.07;2.53;;;10.90;99.90;;;;;;10085638;28;20036;-67
2023/11/16 09:57:09;;;;;;;2.60;1.20;;;11.00;99.90;;;;;;10082615;28;20075;-67
2023/11/16 10:02:09;;;;;;;5.55;1.58;;;11.00;99.90;;;;;;10088748;28;20699;-69
2023/11/16 10:07:04;;;;;;;4.38;1.73;;;11.00;99.90;;;;;;10082340;28;20518;-67
2023/11/16 10:12:06;;;;;;;3.07;1.13;;;11.00;99.90;;;;;;10074914;28;20075;-68
2023/11/16 10:16:58;;;;;;;3.38;2.15;;;11.10;99.90;;;;;;10086967;28;20065;-68
2023/11/16 10:21:51;;;;;;;4.30;1.25;;;11.10;99.90;;;;;;10075122;28;20029;-70
2023/11/16 10:26:51;;;;;;;3.47;1.80;;;11.30;99.90;;;;;;10069414;28;20032;-68
2023/11/16 10:31:46;;;;;;;4.50;1.38;;;11.40;99.90;;;;;;10093963;28;20021;-66
2023/11/16 10:36:37;;;;;;;4.22;1.45;;;11.40;99.90;;;;;;10083719;28;20052;-68
2023/11/16 10:41:29;;;;;;;3.47;1.45;;;11.40;99.90;;;;;;10088080;28;20059;-67
2023/11/16 10:46:22;;;;;;;12.38;1.90;;;11.40;99.90;;;;;;10069220;28;20120;-67
2023/11/16 10:51:16;;;;;;;3.20;1.45;;;11.50;99.90;;;;;;10059618;28;20918;-66
2023/11/16 10:56:08;;;;;;;7.53;1.42;;;11.40;99.90;;;;;;10061140;28;20487;-66
2023/11/16 11:01:08;;;;;;;6.60;1.70;;;11.40;99.90;;;;;;10061931;28;20344;-67
2023/11/16 11:06:00;;;;;;;6.20;2.30;;;11.40;99.90;;;;;;10093359;28;20112;-68
2023/11/16 11:10:54;;;;;;;5.18;1.60;;;11.40;99.90;;;;;;10087084;28;20763;-67
2023/11/16 11:15:49;;;;;;;1.67;1.20;;;11.40;99.90;;;;;;10081765;28;20709;-68
2023/11/16 11:20:40;;;;;;;3.60;1.65;;;11.40;99.90;;;;;;10067654;28;20025;-69
2023/11/16 11:25:32;;;;;;;4.50;1.80;;;11.40;99.90;;;;;;10082077;28;20044;-68
2023/11/16 11:30:22;;;;;;;4.00;1.73;;;11.40;99.90;;;;;;10095834;28;20017;-67
2023/11/16 11:35:13;;;;;;;4.57;1.60;;;11.40;99.90;;;;;;10095058;28;20075;-69
2023/11/16 11:40:08;;;;;;;3.30;1.38;;;11.40;99.90;;;;;;10095055;28;20067;-71
2023/11/16 11:44:58;;;;;;;3.90;1.33;;;11.40;99.90;;;;;;10095480;28;20029;-67
2023/11/16 11:49:51;;;;;;;4.68;1.50;;;11.30;99.90;;;;;;10073565;28;20025;-67
2023/11/16 11:54:43;;;;;;;3.08;1.52;;;11.20;99.90;;;;;;10082934;28;20016;-67
2023/11/16 11:59:36;;;;;;;3.85;1.63;;;11.20;99.90;;;;;;10081873;28;20041;-67
2023/11/16 12:04:35;;;;;;;5.00;2.08;;;11.00;99.90;;;;;;10102158;28;20087;-67
2023/11/16 12:09:30;;;;;;;8.05;2.47;;;11.00;99.90;;;;;;10102260;28;20021;-67
2023/11/16 12:14:23;;;;;;;2.97;1.35;;;10.90;99.90;;;;;;10102279;28;20021;-67
2023/11/16 12:19:21;;;;;;;5.90;2.00;;;10.90;99.90;;;;;;10102513;28;20051;-67
2023/11/16 12:24:14;;;;;;;4.05;1.52;;;11.00;99.90;;;;;;10101926;28;20435;-67
2023/11/16 12:29:15;;;;;;;4.40;1.63;;;11.00;99.90;;;;;;10102110;28;20021;-67
2023/11/16 12:34:06;;;;;;;5.82;2.38;;;11.00;99.90;;;;;;10099969;28;20063;-68
2023/11/16 12:38:57;;;;;;;5.05;2.35;;;11.10;99.90;;;;;;10092873;28;20120;-68
2023/11/16 12:43:47;;;;;;;5.88;3.08;;;11.10;99.90;;;;;;10092172;28;20061;-69
2023/11/16 12:48:41;;;;;;;8.23;2.47;;;11.10;99.90;;;;;;10092147;28;20028;-69
2023/11/16 12:53:37;;;;;;;5.05;2.95;;;11.20;99.90;;;;;;10090344;28;20033;-68
2023/11/16 12:58:28;;;;;;;5.40;2.10;;;11.20;99.90;;;;;;10074539;28;20040;-68
2023/11/16 13:03:20;;;;;;;6.45;2.92;;;11.20;99.90;;;;;;10075714;28;20021;-67
2023/11/16 13:08:19;;;;;;;8.07;2.33;;;11.20;99.90;;;;;;10066029;28;20040;-67
2023/11/16 13:13:10;;;;;;;4.82;2.60;;;11.20;99.90;;;;;;10077372;28;20040;-67
2023/11/16 13:18:01;;;;;;;5.43;1.90;;;11.20;99.90;;;;;;10091502;28;20464;-67
2023/11/16 13:22:52;;;;;;;5.72;2.75;;;11.20;99.90;;;;;;10092818;28;20104;-67
2023/11/16 13:27:43;;;;;;;7.03;2.65;;;11.20;99.90;;;;;;10084007;28;20021;-67
2023/11/16 13:32:34;;;;;;;7.93;3.47;;;11.20;99.90;;;;;;10092920;28;20048;-67
2023/11/16 13:37:25;;;;;;;7.40;2.75;;;11.20;99.90;;;;;;10096776;28;20080;-67
2023/11/16 13:42:15;;;;;;;5.22;2.67;;;11.20;99.90;;;;;;10098513;28;20013;-67
2023/11/16 13:47:08;;;;;;;5.85;2.33;;;11.20;99.90;;;;;;10092321;28;20054;-68
2023/11/16 13:51:59;;;;;;;5.43;3.05;;;11.20;99.90;;;;;;10097755;28;20530;-67
2023/11/16 13:56:50;;;;;;;3.55;2.22;;;11.20;99.90;;;;;;10098170;28;20029;-72
2023/11/16 14:01:40;;;;;;;4.78;2.17;;;11.20;99.90;;;;;;10080074;28;20044;-68
2023/11/16 14:06:31;;;;;;;7.70;2.63;;;11.10;99.90;;;;;;10097434;28;20021;-70
2023/11/16 14:11:22;;;;;;;3.80;1.75;;;11.10;99.90;;;;;;10097586;28;20041;-67
2023/11/16 14:16:13;;;;;;;3.20;1.67;;;11.10;99.90;;;;;;10096990;28;20037;-68
2023/11/16 14:21:07;;;;;;;2.90;2.42;;;11.10;99.90;;;;;;10101024;28;20029;-68
2023/11/16 14:25:58;;;;;;;4.40;2.17;;;11.10;99.90;;;;;;10096920;28;20036;-68
2023/11/16 14:30:49;;;;;;;3.38;1.55;;;11.00;99.90;;;;;;10098335;28;20474;-68
2023/11/16 14:35:43;;;;;;;1.80;1.52;;;11.00;99.90;;;;;;10092607;28;20053;-68
2023/11/16 14:40:34;;;;;;;3.30;2.05;;;11.00;99.90;;;;;;10099956;28;20064;-68
2023/11/16 14:45:27;;;;;;;2.85;2.10;;;11.00;99.90;;;;;;10096662;28;20112;-69
2023/11/16 14:50:20;;;;;;;3.42;1.48;;;11.10;99.90;;;;;;10095966;28;20021;-67
2023/11/16 14:55:11;;;;;;;2.03;1.13;;;11.00;99.90;;;;;;10096276;28;20055;-69
2023/11/16 15:00:02;;;;;;;1.92;1.38;;;10.90;99.90;;;;;;10095535;28;20072;-69
2023/11/16 15:04:54;;;;;;;4.28;2.00;;;11.00;99.90;;;;;;10095633;28;20017;-70
2023/11/16 15:09:44;;;;;;;2.70;1.27;;;11.00;99.90;;;;;;10078049;28;20075;-67
2023/11/16 15:14:36;;;;;;;2.15;1.20;;;11.00;99.90;;;;;;10095016;28;20081;-68
2023/11/16 15:19:31;;;;;;;2.80;1.25;;;10.90;99.90;;;;;;10078645;28;20075;-68
2023/11/16 15:24:22;;;;;;;2.17;1.52;;;10.80;99.90;;;;;;10077312;28;20029;-68
2023/11/16 15:29:13;;;;;;;3.25;1.85;;;10.90;99.90;;;;;;10094811;28;20086;-70
2023/11/16 15:34:04;;;;;;;4.13;1.42;;;10.90;99.90;;;;;;10077113;28;20658;-69
2023/11/16 15:39:01;;;;;;;3.63;1.58;;;10.90;99.90;;;;;;10093232;28;20049;-69
2023/11/16 15:43:52;;;;;;;3.17;1.38;;;10.90;99.90;;;;;;10094969;28;20028;-71
2023/11/16 15:48:43;;;;;;;4.10;1.58;;;11.00;99.90;;;;;;10095064;28;20033;-70
2023/11/16 15:53:34;;;;;;;2.75;1.42;;;10.90;99.90;;;;;;10088314;28;20102;-70
2023/11/16 15:58:25;;;;;;;2.00;1.13;;;10.80;99.90;;;;;;10095702;28;20037;-71
2023/11/16 16:03:16;;;;;;;3.15;1.27;;;10.80;99.90;;;;;;10076702;28;20573;-70
2023/11/16 16:08:08;;;;;;;2.25;1.20;;;10.70;99.90;;;;;;10089420;28;20406;-69
2023/11/16 16:13:00;;;;;;;4.25;2.03;;;10.70;99.90;;;;;;10085404;28;20021;-69
2023/11/16 16:17:51;;;;;;;2.85;2.13;;;10.70;99.90;;;;;;10086007;28;20128;-69
2023/11/16 16:22:41;;;;;;;2.15;1.63;;;10.70;99.90;;;;;;10089715;28;20525;-67
2023/11/16 16:27:33;;;;;;;3.28;1.77;;;10.70;99.90;;;;;;10093787;28;20022;-68
2023/11/16 16:32:23;;;;;;;2.83;2.25;;;10.80;99.90;;;;;;10093669;28;20021;-69
2023/11/16 16:37:14;;;;;;;3.60;1.90;;;10.80;99.90;;;;;;10077915;28;20454;-67
2023/11/16 16:42:05;;;;;;;4.82;2.10;;;10.80;99.90;;;;;;10100868;28;20060;-69
2023/11/16 16:46:58;;;;;;;1.73;1.63;;;10.70;99.90;;;;;;10100637;28;20562;-68
2023/11/16 16:51:49;;;;;;;4.72;2.13;;;10.70;99.90;;;;;;10082637;28;20025;-68
2023/11/16 16:56:41;;;;;;;2.00;1.80;;;10.70;99.90;;;;;;10102818;28;20044;-69
2023/11/16 17:01:35;;;;;;;6.05;2.58;;;10.60;99.90;;;;;;10100320;28;20104;-67
2023/11/16 17:06:27;;;;;;;3.35;1.70;;;10.70;99.90;;;;;;10101065;28;20076;-67
2023/11/16 17:11:55;;;;;;;3.25;1.67;;;10.70;99.90;;;;;;10099747;28;20021;-69
2023/11/16 17:17:17;;;;;;;2.70;1.48;;;10.70;99.90;;;;;;10077817;28;20055;-68
2023/11/16 17:22:15;;;;;;;4.00;1.90;;;10.70;99.90;;;;;;10099645;28;20037;-69
2023/11/16 17:27:06;;;;;;;4.72;1.83;;;10.60;99.90;;;;;;10082176;28;20534;-67
2023/11/16 17:32:00;;;;;;;2.85;1.45;;;10.60;99.90;;;;;;10084378;28;20422;-68
2023/11/16 17:36:51;;;;;;;2.28;1.33;;;10.60;99.90;;;;;;10092147;28;20136;-68
2023/11/16 17:41:43;;;;;;;2.42;1.35;;;10.60;99.90;;;;;;10097886;28;20111;-68
2023/11/16 17:46:37;;;;;;;3.03;1.70;;;10.60;99.90;;;;;;10081407;28;20127;-69
2023/11/16 17:51:28;;;;;;;1.83;1.25;;;10.50;99.90;;;;;;10079769;28;20166;-69
2023/11/16 17:56:18;;;;;;;5.38;3.55;;;10.70;99.90;;;;;;10099139;28;20185;-70
2023/11/16 18:01:10;;;;;;;3.28;2.05;;;10.70;99.90;;;;;;10080275;28;20440;-68
2023/11/16 18:06:01;;;;;;;2.20;1.27;;;10.70;99.90;;;;;;10098159;28;20020;-68
2023/11/16 18:10:59;;;;;;;2.47;1.67;;;10.60;99.90;;;;;;10097257;28;20078;-68
2023/11/16 18:15:49;;;;;;;2.88;2.22;;;10.60;99.90;;;;;;10097948;28;20126;-69
2023/11/16 18:20:41;;;;;;;5.88;2.00;;;10.50;99.90;;;;;;10093173;28;20032;-67
2023/11/16 18:25:34;;;;;;;3.08;1.58;;;10.60;99.90;;;;;;10075403;28;20031;-69
2023/11/16 18:30:25;;;;;;;3.45;1.80;;;10.60;99.90;;;;;;10093999;28;20047;-67
2023/11/16 18:35:18;;;;;;;3.08;1.60;;;10.60;99.90;;;;;;10097597;28;20041;-67
2023/11/16 18:40:09;;;;;;;2.17;1.90;;;10.40;99.90;;;;;;10096553;28;20547;-68
2023/11/16 18:45:03;;;;;;;2.42;1.70;;;10.30;99.90;;;;;;10097006;28;20108;-68
2023/11/16 18:49:54;;;;;;;1.98;1.45;;;10.20;99.90;;;;;;10098647;28;20033;-68
2023/11/16 18:54:45;;;;;;;2.35;1.35;;;10.10;99.90;;;;;;10080749;28;20028;-70
2023/11/16 18:59:36;;;;;;;3.80;1.50;;;10.00;99.90;;;;;;10076343;28;20086;-69
2023/11/16 19:04:27;;;;;;;3.00;1.60;;;10.00;99.90;;;;;;10080995;28;20033;-69
2023/11/16 19:09:21;;;;;;;2.85;1.45;;;10.10;99.90;;;;;;10079535;28;20028;-69
2023/11/16 19:14:14;;;;;;;1.13;0.90;;;10.00;99.90;;;;;;10092718;28;20067;-69
2023/11/16 19:19:05;;;;;;;2.47;1.60;;;10.00;99.90;;;;;;10074138;28;20402;-70
2023/11/16 19:23:56;;;;;;;3.40;1.80;;;10.00;99.90;;;;;;10067982;28;20199;-71
2023/11/16 19:28:47;;;;;;;2.42;1.35;;;10.20;99.90;;;;;;10093750;28;20021;-71
2023/11/16 19:33:40;;;;;;;3.75;1.63;;;10.30;99.90;;;;;;10093643;28;20060;-69
2023/11/16 19:38:30;;;;;;;4.43;1.33;;;10.30;99.90;;;;;;10092113;28;20118;-69
2023/11/16 19:43:21;;;;;;;1.90;1.27;;;10.20;99.90;;;;;;10092988;28;20021;-71
2023/11/16 19:48:12;;;;;;;2.95;1.52;;;10.10;99.90;;;;;;10083672;28;20033;-69
2023/11/16 19:53:05;;;;;;;1.63;1.35;;;10.10;99.90;;;;;;10088900;28;20120;-69
2023/11/16 19:57:55;;;;;;;1.35;1.10;;;10.00;99.90;;;;;;10071367;28;20143;-70
2023/11/16 20:02:47;;;;;;;2.22;1.15;;;10.00;99.90;;;;;;10088394;28;20112;-69
2023/11/16 20:07:37;;;;;;;1.55;1.13;;;9.80;99.90;;;;;;10094303;28;20100;-69
2023/11/16 20:12:28;;;;;;;2.03;1.42;;;9.80;99.90;;;;;;10096251;28;20100;-69
2023/11/16 20:17:19;;;;;;;3.05;1.67;;;9.80;99.90;;;;;;10098060;28;20120;-70
2023/11/16 20:22:10;;;;;;;2.63;1.33;;;9.80;99.90;;;;;;10101324;28;20036;-67
2023/11/16 20:27:06;;;;;;;2.08;1.23;;;9.90;99.90;;;;;;10101564;28;20570;-68
2023/11/16 20:31:58;;;;;;;2.35;1.50;;;9.80;99.90;;;;;;10095235;28;20231;-69
2023/11/16 20:36:49;;;;;;;1.55;1.30;;;9.90;99.90;;;;;;10104356;28;20568;-69
2023/11/16 20:41:45;;;;;;;3.88;2.17;;;9.90;99.90;;;;;;10101487;28;20046;-69
2023/11/16 20:46:35;;;;;;;2.70;1.77;;;9.80;99.90;;;;;;10101204;28;20498;-69
2023/11/16 20:51:33;;;;;;;4.65;1.90;;;9.80;99.90;;;;;;10095318;28;20037;-68
2023/11/16 20:56:27;;;;;;;2.42;1.45;;;9.90;99.90;;;;;;10086075;28;20495;-69
2023/11/16 21:01:17;;;;;;;2.00;1.63;;;9.90;99.90;;;;;;10077147;28;20018;-68
2023/11/16 21:06:08;;;;;;;1.92;1.50;;;9.90;99.90;;;;;;10093062;28;20395;-68
2023/11/16 21:11:00;;;;;;;3.42;1.33;;;9.90;99.90;;;;;;10100119;28;20083;-69
2023/11/16 21:15:50;;;;;;;1.98;1.77;;;9.90;99.90;;;;;;10099970;28;20469;-68
2023/11/16 21:20:42;;;;;;;2.65;1.42;;;9.90;99.90;;;;;;10096570;28;20040;-68
2023/11/16 21:25:33;;;;;;;2.75;1.70;;;9.90;99.90;;;;;;10099078;28;20519;-72
2023/11/16 21:30:23;;;;;;;1.67;1.27;;;9.80;99.90;;;;;;10099785;28;20159;-73
2023/11/16 21:35:18;;;;;;;4.05;1.60;;;9.80;99.90;;;;;;10099644;28;20040;-70
2023/11/16 21:40:11;;;;;;;2.13;1.40;;;9.90;99.90;;;;;;10099226;28;20139;-71
2023/11/16 21:45:02;;;;;;;1.38;1.27;;;9.80;99.90;;;;;;10081711;28;20021;-72
2023/11/16 21:49:55;;;;;;;2.85;1.25;;;9.70;99.90;;;;;;10081415;28;20414;-72
2023/11/16 21:54:46;;;;;;;3.30;1.70;;;9.90;99.90;;;;;;10097442;28;20067;-74
2023/11/16 21:59:37;;;;;;;2.38;1.85;;;9.80;99.90;;;;;;10099637;28;20044;-73
2023/11/16 22:04:28;;;;;;;1.55;1.40;;;9.80;99.90;;;;;;10079235;28;20027;-73
2023/11/16 22:09:19;;;;;;;2.75;1.27;;;9.80;99.90;;;;;;10097976;28;20422;-73
2023/11/16 22:14:10;;;;;;;2.25;1.23;;;9.70;99.90;;;;;;10079635;28;20017;-68
2023/11/16 22:19:01;;;;;;;3.17;1.83;;;9.70;99.90;;;;;;10098090;28;20112;-67
2023/11/16 22:23:53;;;;;;;1.80;1.35;;;9.70;99.90;;;;;;10079957;28;20812;-67
2023/11/16 22:28:44;;;;;;;3.25;1.48;;;9.60;99.90;;;;;;10085546;28;20041;-67
2023/11/16 22:33:35;;;;;;;2.55;1.42;;;9.50;99.90;;;;;;10093107;28;20144;-66
2023/11/16 22:38:26;;;;;;;3.97;1.73;;;9.50;99.90;;;;;;10088946;28;20090;-67
2023/11/16 22:43:16;;;;;;;2.15;1.25;;;9.50;99.90;;;;;;10088634;28;20183;-67
2023/11/16 22:48:07;;;;;;;2.20;1.23;;;9.60;99.90;;;;;;10096781;28;20093;-66
2023/11/16 22:52:58;;;;;;;1.45;0.98;;;9.60;99.90;;;;;;10096048;28;20024;-67
2023/11/16 22:57:49;;;;;;;1.30;1.17;;;9.60;99.90;;;;;;10096454;28;20068;-66
2023/11/16 23:02:40;;;;;;;4.28;1.65;;;9.50;99.90;;;;;;10094218;28;20025;-67
2023/11/16 23:07:31;;;;;;;1.52;1.23;;;9.40;99.90;;;;;;10096280;28;20025;-66
2023/11/16 23:12:21;;;;;;;0.88;0.70;;;9.50;99.90;;;;;;10095859;28;20052;-67
2023/11/16 23:17:15;;;;;;;0.70;0.60;;;9.50;99.90;;;;;;10095469;28;20032;-66
2023/11/16 23:22:11;;;;;;;1.58;0.75;;;9.40;99.90;;;;;;10094707;28;20031;-66
2023/11/16 23:27:03;;;;;;;1.52;0.90;;;9.40;99.90;;;;;;10098486;28;20039;-68
2023/11/16 23:31:54;;;;;;;1.33;0.80;;;9.50;99.90;;;;;;10094891;28;20035;-67
2023/11/16 23:36:44;;;;;;;0.90;0.55;;;9.50;99.90;;;;;;10077186;28;20239;-66
2023/11/16 23:41:35;;;;;;;0.73;0.63;;;9.50;99.90;;;;;;10094851;28;20117;-66
2023/11/16 23:46:25;;;;;;;0.77;0.70;;;9.50;99.90;;;;;;10095486;28;20033;-67
2023/11/16 23:51:16;;;;;;;1.25;0.80;;;9.50;99.90;;;;;;10102506;28;20037;-67
2023/11/16 23:56:07;;;;;;;2.30;1.08;;;9.50;99.90;;;;;;10101124;28;20095;-68
